Time;durP1;ratioP1;P1;durP2;ratioP2;P2;SDS_P1;SDS_P2;PMS_P1;PMS_P2;Temp;Humidity;BMP_temperature;BMP_pressure;BME280_temperature;BME280_humidity;BME280_pressure;Samples;Min_cycle;Max_cycle;Signal;HPM_P1;HPM_P2
2022/09/02 00:00:59;;;;;;;7.75;4.40;;;16.60;99.90;;;;;;5107467;28;20502;-50
2022/09/02 00:03:33;;;;;;;;;;;16.50;99.90;;;;;;5099501;28;20028;-50
2022/09/02 00:06:00;;;;;;;6.95;5.50;;;16.40;99.90;;;;;;5102499;28;19908;-50
2022/09/02 00:08:26;;;;;;;13.05;6.57;;;16.40;99.90;;;;;;5104298;28;20119;-50
2022/09/02 00:10:53;;;;;;;6.45;5.82;;;16.50;99.90;;;;;;5058889;28;20090;-50
2022/09/02 00:13:19;;;;;;;7.35;6.40;;;16.40;99.90;;;;;;5100209;28;20023;-50
2022/09/02 00:15:47;;;;;;;6.40;5.20;;;16.50;99.90;;;;;;5110860;28;20067;-51
2022/09/02 00:18:13;;;;;;;8.82;5.70;;;16.40;99.90;;;;;;5108023;28;20036;-50
2022/09/02 00:20:43;;;;;;;8.27;5.50;;;16.40;99.90;;;;;;5106496;28;20107;-50
2022/09/02 00:23:09;;;;;;;7.50;5.57;;;16.50;99.90;;;;;;5106172;28;20028;-50
2022/09/02 00:25:36;;;;;;;6.47;5.10;;;16.50;99.90;;;;;;5088048;28;20495;-50
2022/09/02 00:28:03;;;;;;;6.28;5.00;;;16.50;99.90;;;;;;5099669;28;20110;-50
2022/09/02 00:30:29;;;;;;;8.27;5.50;;;16.30;99.90;;;;;;5103070;28;20046;-50
2022/09/02 00:32:55;;;;;;;8.30;5.57;;;16.30;99.90;;;;;;5102442;28;20031;-50
2022/09/02 00:35:21;;;;;;;7.05;5.72;;;16.30;99.90;;;;;;5103276;28;20111;-50
2022/09/02 00:37:46;;;;;;;6.75;5.07;;;16.30;99.90;;;;;;5101011;28;20839;-51
2022/09/02 00:40:13;;;;;;;5.65;5.13;;;16.30;99.90;;;;;;5100296;28;20024;-50
2022/09/02 00:42:39;;;;;;;9.23;5.63;;;16.30;99.90;;;;;;5036938;28;20033;-50
2022/09/02 00:45:08;;;;;;;6.85;5.00;;;16.40;99.90;;;;;;5037448;28;20087;-51
2022/09/02 00:47:35;;;;;;;5.78;4.50;;;16.40;99.90;;;;;;5012004;28;20164;-50
2022/09/02 00:50:05;;;;;;;8.18;5.47;;;16.40;99.90;;;;;;5040195;28;20033;-50
2022/09/02 00:52:36;;;;;;;7.03;5.22;;;16.30;99.90;;;;;;5043546;28;20604;-50
2022/09/02 00:55:12;;;;;;;6.38;5.32;;;16.30;99.90;;;;;;5036915;28;20034;-50
2022/09/02 00:57:49;;;;;;;6.97;5.13;;;16.30;99.90;;;;;;5042315;28;20074;-50
2022/09/02 01:00:23;;;;;;;8.43;5.97;;;16.30;99.90;;;;;;5039546;28;20033;-50
2022/09/02 01:02:55;;;;;;;10.00;5.55;;;16.30;99.90;;;;;;5041028;28;20087;-50
2022/09/02 01:05:23;;;;;;;6.40;4.50;;;16.20;99.90;;;;;;5035365;28;20092;-50
2022/09/02 01:08:09;;;;;;;7.38;5.53;;;16.20;99.90;;;;;;5039529;28;20134;-50
2022/09/02 01:10:35;;;;;;;7.13;5.15;;;16.30;99.90;;;;;;4965876;28;20172;-51
2022/09/02 01:13:07;;;;;;;5.85;4.88;;;16.30;99.90;;;;;;5012974;28;20393;-50
2022/09/02 01:15:43;;;;;;;6.15;5.55;;;16.20;99.90;;;;;;5069326;28;20077;-50
2022/09/02 01:18:14;;;;;;;6.90;5.10;;;16.20;99.90;;;;;;5060872;28;20040;-50
2022/09/02 01:20:39;;;;;;;5.20;3.60;;;16.20;99.90;;;;;;5060719;28;20500;-50
2022/09/02 01:23:05;;;;;;;6.97;6.05;;;16.10;99.90;;;;;;5061577;28;20119;-50
2022/09/02 01:25:33;;;;;;;7.93;4.75;;;16.10;99.90;;;;;;5047306;28;20049;-50
2022/09/02 01:28:11;;;;;;;6.93;5.63;;;16.10;99.90;;;;;;5064438;28;20033;-50
2022/09/02 01:30:40;;;;;;;6.85;5.80;;;16.10;99.90;;;;;;5042158;28;20033;-49
2022/09/02 01:33:07;;;;;;;6.50;5.00;;;16.10;99.90;;;;;;5043342;28;20155;-50
2022/09/02 01:35:33;;;;;;;6.45;5.55;;;16.20;99.90;;;;;;5041663;28;20041;-50
2022/09/02 01:37:58;;;;;;;7.55;6.15;;;16.10;99.90;;;;;;5038496;28;20040;-50
2022/09/02 01:40:26;;;;;;;6.88;3.90;;;16.20;99.90;;;;;;5040775;28;20060;-50
2022/09/02 01:42:55;;;;;;;5.88;4.13;;;16.10;99.90;;;;;;5046282;28;20100;-50
2022/09/02 01:45:21;;;;;;;9.23;5.53;;;16.00;99.90;;;;;;5041938;28;20038;-50
2022/09/02 01:47:47;;;;;;;6.90;5.50;;;16.10;99.90;;;;;;5039371;28;20033;-50
2022/09/02 01:50:13;;;;;;;7.53;5.55;;;16.00;99.90;;;;;;5051404;28;20052;-49
2022/09/02 01:52:40;;;;;;;5.88;4.97;;;16.10;99.90;;;;;;5011428;28;20531;-50
2022/09/02 01:55:06;;;;;;;6.03;4.47;;;16.10;99.90;;;;;;5051904;28;20040;-50
2022/09/02 01:57:32;;;;;;;8.50;5.13;;;16.00;99.90;;;;;;5033762;28;20052;-51
2022/09/02 02:00:00;;;;;;;5.70;4.85;;;16.00;99.90;;;;;;5065744;28;20369;-50
2022/09/02 02:02:27;;;;;;;6.68;4.88;;;16.00;99.90;;;;;;5080665;28;20043;-50
2022/09/02 02:04:53;;;;;;;5.45;3.97;;;16.10;99.90;;;;;;5104788;28;20024;-51
2022/09/02 02:07:21;;;;;;;8.02;5.63;;;16.10;99.90;;;;;;5103678;28;20153;-49
2022/09/02 02:09:47;;;;;;;6.93;5.63;;;16.20;99.90;;;;;;5104159;28;20036;-49
2022/09/02 02:12:14;;;;;;;8.00;6.03;;;16.20;99.90;;;;;;5070503;28;20036;-50
2022/09/02 02:14:40;;;;;;;8.48;5.95;;;16.30;99.90;;;;;;5103723;28;20020;-50
2022/09/02 02:17:07;;;;;;;4.65;3.33;;;16.30;99.90;;;;;;5106771;28;20027;-50
2022/09/02 02:19:33;;;;;;;6.32;5.00;;;16.20;99.90;;;;;;5102456;28;20031;-50
2022/09/02 02:21:59;;;;;;;7.63;6.00;;;16.20;99.90;;;;;;5086558;28;20379;-50
2022/09/02 02:24:25;;;;;;;5.45;4.90;;;16.20;99.90;;;;;;5102341;28;20097;-50
2022/09/02 02:26:51;;;;;;;6.88;5.03;;;16.10;99.90;;;;;;5108600;27;20179;-50
2022/09/02 02:29:17;;;;;;;8.70;5.65;;;16.10;99.90;;;;;;5110983;27;20492;-49
2022/09/02 02:31:43;;;;;;;6.55;5.22;;;16.20;99.90;;;;;;5071472;27;20096;-50
2022/09/02 02:34:09;;;;;;;7.18;6.45;;;16.30;99.90;;;;;;5069744;28;20028;-50
2022/09/02 02:36:36;;;;;;;6.70;5.38;;;16.30;99.90;;;;;;5105473;27;20672;-50
2022/09/02 02:39:03;;;;;;;6.13;5.35;;;16.20;99.90;;;;;;5106419;27;20480;-50
2022/09/02 02:41:30;;;;;;;8.23;5.63;;;16.20;99.90;;;;;;5102891;27;20059;-50
2022/09/02 02:43:56;;;;;;;11.30;5.68;;;16.10;99.90;;;;;;5088825;28;20040;-51
2022/09/02 02:46:22;;;;;;;7.75;5.35;;;16.10;99.90;;;;;;5073156;28;20031;-50
2022/09/02 02:48:48;;;;;;;7.15;5.65;;;16.10;99.90;;;;;;5074918;27;20038;-50
2022/09/02 02:51:14;;;;;;;6.25;5.53;;;16.20;99.90;;;;;;5103779;27;20051;-50
2022/09/02 02:53:39;;;;;;;8.05;6.28;;;16.20;99.90;;;;;;5103264;27;20058;-50
2022/09/02 02:56:06;;;;;;;4.93;3.60;;;16.30;99.90;;;;;;5105550;27;20036;-49
2022/09/02 02:58:32;;;;;;;8.35;6.35;;;16.20;99.90;;;;;;5105847;27;20062;-50
2022/09/02 03:00:59;;;;;;;7.15;5.05;;;16.20;99.90;;;;;;5043107;28;20479;-49
2022/09/02 03:03:26;;;;;;;10.27;6.72;;;16.20;99.90;;;;;;5103441;27;20030;-49
2022/09/02 04:25:00;;;;;;;7.45;5.10;;;16.20;99.90;;;;;;5065093;28;20674;-50
2022/09/02 04:27:26;;;;;;;5.95;4.90;;;16.20;99.90;;;;;;5035831;28;20153;-50
2022/09/02 04:29:52;;;;;;;6.57;5.93;;;16.20;99.90;;;;;;5073560;28;20489;-50
2022/09/02 04:32:18;;;;;;;5.68;4.95;;;16.30;99.90;;;;;;5070727;28;20024;-51
2022/09/02 04:34:44;;;;;;;6.40;4.85;;;16.30;99.90;;;;;;5073763;28;20060;-50
2022/09/02 04:37:12;;;;;;;10.68;4.85;;;16.20;99.90;;;;;;5010025;28;20552;-50
2022/09/02 04:39:38;;;;;;;11.32;6.93;;;16.20;99.90;;;;;;5068409;28;20059;-51
2022/09/02 04:42:04;;;;;;;6.78;5.88;;;16.20;99.90;;;;;;5002306;28;20037;-50
2022/09/02 04:44:30;;;;;;;7.22;5.88;;;16.20;99.90;;;;;;5069336;28;20062;-50
2022/09/02 04:46:56;;;;;;;7.78;5.50;;;16.20;99.90;;;;;;5070660;28;20072;-51
2022/09/02 04:49:22;;;;;;;6.82;5.75;;;16.20;99.90;;;;;;5072969;28;20059;-53
2022/09/02 04:51:49;;;;;;;5.93;4.13;;;16.20;99.90;;;;;;5030427;28;20044;-50
2022/09/02 04:54:15;;;;;;;8.07;6.03;;;16.10;99.90;;;;;;5070690;28;20028;-50
2022/09/02 04:56:41;;;;;;;8.05;6.20;;;16.10;99.90;;;;;;5070940;28;20032;-50
2022/09/02 04:59:08;;;;;;;9.60;6.95;;;16.10;99.90;;;;;;5067989;28;20181;-50
2022/09/02 05:01:35;;;;;;;9.13;6.20;;;16.20;99.90;;;;;;5069916;28;20032;-51
2022/09/02 05:04:03;;;;;;;7.53;6.20;;;16.20;99.90;;;;;;5067209;28;20070;-50
2022/09/02 05:06:29;;;;;;;6.90;6.00;;;16.20;99.90;;;;;;5017343;28;20057;-50
2022/09/02 05:08:57;;;;;;;9.27;6.30;;;16.20;99.90;;;;;;5071565;28;20029;-51
2022/09/02 05:11:27;;;;;;;7.55;5.95;;;16.20;99.90;;;;;;4967588;28;20162;-51
2022/09/02 05:13:55;;;;;;;7.18;5.18;;;16.20;99.90;;;;;;4971565;28;20057;-50
2022/09/02 05:16:28;;;;;;;8.15;6.28;;;16.10;99.90;;;;;;4971022;28;20375;-51
2022/09/02 05:18:55;;;;;;;7.07;5.45;;;16.20;99.90;;;;;;4968708;28;20042;-50
2022/09/02 05:21:22;;;;;;;6.57;5.88;;;16.20;99.90;;;;;;4972610;28;20038;-49
2022/09/02 05:23:48;;;;;;;8.20;5.68;;;16.10;99.90;;;;;;4974433;28;20034;-50
2022/09/02 05:26:14;;;;;;;6.13;5.00;;;16.20;99.90;;;;;;4971285;28;20042;-50
2022/09/02 05:28:42;;;;;;;6.50;5.45;;;16.20;99.90;;;;;;4974446;28;20442;-50
2022/09/02 05:31:19;;;;;;;7.10;5.10;;;16.20;99.90;;;;;;4974274;28;20045;-50
2022/09/02 05:33:45;;;;;;;7.55;5.28;;;16.20;99.90;;;;;;4976842;28;20510;-50
2022/09/02 05:36:14;;;;;;;5.35;4.07;;;16.20;99.90;;;;;;4977440;28;20038;-53
2022/09/02 05:38:41;;;;;;;5.40;4.43;;;16.10;99.90;;;;;;4979042;28;20038;-51
2022/09/02 05:41:10;;;;;;;4.80;4.05;;;15.90;99.90;;;;;;4968809;28;20066;-52
2022/09/02 05:43:37;;;;;;;7.15;3.92;;;15.80;99.90;;;;;;5069829;28;20116;-53
2022/09/02 05:46:08;;;;;;;5.00;3.88;;;15.80;99.90;;;;;;5076730;28;20024;-53
2022/09/02 05:51:19;;;;;;;6.47;4.28;;;15.70;99.90;;;;;;5080793;28;20051;-53
2022/09/02 05:53:45;;;;;;;6.57;4.90;;;15.80;99.90;;;;;;5074321;28;20032;-54
2022/09/02 05:56:12;;;;;;;8.13;4.82;;;15.90;99.90;;;;;;5077597;28;20035;-54
2022/09/02 05:58:37;;;;;;;6.07;5.40;;;15.80;99.90;;;;;;5080641;28;20399;-54
2022/09/02 06:01:11;;;;;;;7.88;5.10;;;15.90;99.90;;;;;;5019763;28;20032;-53
2022/09/02 06:03:37;;;;;;;9.57;7.07;;;15.90;99.90;;;;;;5073594;28;20479;-53
2022/09/02 06:06:04;;;;;;;12.07;7.75;;;15.90;99.90;;;;;;5079425;28;20032;-54
2022/09/02 06:08:31;;;;;;;7.65;4.75;;;15.90;99.90;;;;;;5084871;28;20060;-53
2022/09/02 06:10:59;;;;;;;23.65;16.67;;;15.90;99.90;;;;;;5082994;28;20040;-53
2022/09/02 06:13:26;;;;;;;8.60;5.15;;;15.90;99.90;;;;;;5074007;28;20024;-54
2022/09/02 06:15:52;;;;;;;6.53;4.18;;;16.00;99.90;;;;;;5080525;28;20403;-55
2022/09/02 06:18:18;;;;;;;5.88;4.80;;;15.90;99.90;;;;;;5078598;28;20032;-53
2022/09/02 06:20:46;;;;;;;4.97;4.47;;;16.00;99.90;;;;;;5028151;28;20056;-52
2022/09/02 06:23:13;;;;;;;6.40;4.22;;;16.00;99.90;;;;;;5024254;28;20372;-54
2022/09/02 06:25:41;;;;;;;6.68;4.82;;;15.90;99.90;;;;;;5076332;28;20056;-52
2022/09/02 06:28:07;;;;;;;5.85;4.40;;;16.00;99.90;;;;;;5075052;28;20024;-53
2022/09/02 06:30:34;;;;;;;7.78;5.03;;;16.00;99.90;;;;;;5078854;28;20379;-54
2022/09/02 06:33:02;;;;;;;6.70;5.13;;;16.00;99.90;;;;;;5071198;28;20025;-52
2022/09/02 06:35:30;;;;;;;7.03;5.45;;;15.90;99.90;;;;;;5078925;28;20039;-53
2022/09/02 06:37:57;;;;;;;5.72;4.78;;;16.00;99.90;;;;;;5074000;28;20391;-53
2022/09/02 06:40:23;;;;;;;5.93;5.32;;;16.00;99.90;;;;;;5081279;28;20031;-53
2022/09/02 06:42:49;;;;;;;6.88;5.53;;;15.90;99.90;;;;;;5077127;28;20028;-53
2022/09/02 06:45:15;;;;;;;6.97;5.13;;;16.10;99.90;;;;;;4977095;28;20036;-55
2022/09/02 06:47:41;;;;;;;7.60;5.15;;;16.20;99.90;;;;;;5071364;28;20372;-54
2022/09/02 06:50:07;;;;;;;7.43;4.80;;;16.20;99.90;;;;;;5071197;28;20024;-54
2022/09/02 06:52:33;;;;;;;6.47;4.32;;;16.20;99.90;;;;;;5072085;28;20052;-55
2022/09/02 06:55:00;;;;;;;10.05;4.70;;;16.10;99.90;;;;;;5043848;28;20530;-55
2022/09/02 06:57:25;;;;;;;5.80;4.53;;;16.10;99.90;;;;;;5070087;28;20024;-54
2022/09/02 06:59:51;;;;;;;8.10;4.22;;;16.20;99.90;;;;;;5047554;28;20541;-49
2022/09/02 07:02:17;;;;;;;4.78;4.15;;;16.10;99.90;;;;;;5012814;28;20115;-49
2022/09/02 07:07:27;;;;;;;5.35;4.13;;;16.10;99.90;;;;;;5021245;28;20395;-55
2022/09/02 07:09:54;;;;;;;6.07;4.43;;;16.10;99.90;;;;;;5073480;28;20033;-53
2022/09/02 07:12:20;;;;;;;7.07;4.70;;;16.10;99.90;;;;;;4956919;28;20046;-49
2022/09/02 07:14:46;;;;;;;6.30;4.43;;;16.10;99.90;;;;;;4992959;28;20034;-51
2022/09/02 07:17:16;;;;;;;5.57;4.28;;;16.10;99.90;;;;;;5022738;28;20072;-50
2022/09/02 07:19:43;;;;;;;8.02;4.65;;;16.00;99.90;;;;;;5022420;28;20052;-52
2022/09/02 07:22:09;;;;;;;7.10;5.25;;;16.10;99.90;;;;;;5022015;28;20505;-57
2022/09/02 07:24:36;;;;;;;5.47;4.43;;;16.20;99.90;;;;;;4973600;28;20124;-53
2022/09/02 07:27:02;;;;;;;7.35;4.53;;;16.10;99.90;;;;;;5024011;28;20041;-56
2022/09/02 07:29:30;;;;;;;7.78;5.25;;;16.00;99.90;;;;;;4973279;28;20037;-53
2022/09/02 07:31:55;;;;;;;5.40;4.82;;;16.10;99.90;;;;;;5023759;28;20702;-57
2022/09/02 07:34:21;;;;;;;6.70;4.50;;;16.00;99.90;;;;;;5019389;28;20064;-53
2022/09/02 07:36:47;;;;;;;4.65;3.22;;;16.10;99.90;;;;;;5028238;28;20108;-56
2022/09/02 07:39:14;;;;;;;7.80;5.70;;;15.90;99.90;;;;;;5025031;28;20500;-55
2022/09/02 07:41:41;;;;;;;6.80;4.70;;;15.90;99.90;;;;;;5022163;28;20076;-56
2022/09/02 07:44:07;;;;;;;6.70;5.32;;;16.00;99.90;;;;;;5058767;28;20040;-56
2022/09/02 07:46:33;;;;;;;5.72;4.03;;;16.00;99.90;;;;;;5072801;28;20036;-54
2022/09/02 07:49:02;;;;;;;8.48;5.90;;;16.00;99.90;;;;;;5072819;28;20375;-56
2022/09/02 07:51:28;;;;;;;8.48;4.95;;;16.10;99.90;;;;;;5067306;28;20071;-53
2022/09/02 07:53:54;;;;;;;8.93;5.40;;;16.20;99.90;;;;;;5035770;28;20074;-56
2022/09/02 07:56:20;;;;;;;10.05;5.35;;;16.20;99.90;;;;;;5078299;28;20021;-55
2022/09/02 07:58:46;;;;;;;6.68;5.15;;;16.30;99.90;;;;;;5072591;28;20043;-54
2022/09/02 08:01:12;;;;;;;6.68;5.38;;;16.40;99.90;;;;;;5041072;28;20081;-56
2022/09/02 08:03:59;;;;;;;6.85;6.03;;;16.40;99.90;;;;;;5077325;28;20048;-56
2022/09/02 08:06:27;;;;;;;5.65;4.82;;;16.30;99.90;;;;;;5022112;28;20045;-56
2022/09/02 08:08:53;;;;;;;6.50;5.15;;;16.40;99.90;;;;;;5026475;28;20485;-54
2022/09/02 08:11:20;;;;;;;6.95;5.70;;;16.50;99.90;;;;;;5023046;28;20037;-56
2022/09/02 08:13:47;;;;;;;8.10;5.18;;;16.40;99.90;;;;;;5026890;28;20409;-55
2022/09/02 08:16:13;;;;;;;5.90;5.30;;;16.30;99.90;;;;;;5008116;28;20128;-56
2022/09/02 08:18:39;;;;;;;7.22;5.70;;;16.30;99.90;;;;;;5019687;28;20049;-57
2022/09/02 08:21:05;;;;;;;5.88;5.25;;;16.30;99.90;;;;;;5031523;28;20040;-54
2022/09/02 08:23:31;;;;;;;7.15;5.32;;;16.40;99.90;;;;;;5018834;28;20033;-53
2022/09/02 08:26:01;;;;;;;6.03;5.30;;;16.30;99.90;;;;;;5036143;28;20057;-55
2022/09/02 08:28:27;;;;;;;5.88;4.18;;;16.40;99.90;;;;;;5041470;28;20499;-53
2022/09/02 08:30:57;;;;;;;7.30;4.45;;;16.30;99.90;;;;;;5014307;28;20486;-53
2022/09/02 08:33:25;;;;;;;5.88;5.07;;;16.30;99.90;;;;;;4995429;28;20056;-54
2022/09/02 08:35:51;;;;;;;7.78;4.90;;;16.20;99.90;;;;;;5039144;28;20025;-53
2022/09/02 08:38:16;;;;;;;5.15;4.43;;;16.30;99.90;;;;;;5084616;28;20105;-55
2022/09/02 08:40:43;;;;;;;6.82;4.82;;;16.30;99.90;;;;;;5095284;28;20016;-57
2022/09/02 08:43:37;;;;;;;5.07;4.28;;;16.40;99.90;;;;;;5091502;28;20066;-56
2022/09/02 08:46:03;;;;;;;6.50;5.03;;;16.30;99.90;;;;;;5093734;28;20039;-52
2022/09/02 08:48:38;;;;;;;6.22;4.90;;;16.40;99.90;;;;;;5092001;28;20066;-57
2022/09/02 08:51:12;;;;;;;6.22;4.63;;;16.50;99.90;;;;;;5054884;28;20040;-52
2022/09/02 08:54:12;;;;;;;5.00;4.30;;;16.60;99.90;;;;;;5089880;28;20081;-51
2022/09/02 08:56:37;;;;;;;6.28;4.57;;;16.50;99.90;;;;;;5026985;28;20120;-51
2022/09/02 08:59:05;;;;;;;6.80;4.30;;;16.40;99.90;;;;;;5026356;28;20140;-54
2022/09/02 09:02:02;;;;;;;7.18;4.20;;;16.50;99.90;;;;;;5025580;28;20160;-54
2022/09/02 09:04:55;;;;;;;3.88;3.47;;;16.50;99.90;;;;;;4952750;29;20114;-54
2022/09/02 09:07:45;;;;;;;5.80;3.83;;;16.40;99.90;;;;;;4941252;29;20039;-53
2022/09/02 09:10:55;;;;;;;5.97;4.60;;;16.30;99.90;;;;;;4952964;29;20479;-55
2022/09/02 09:13:42;;;;;;;6.75;4.15;;;16.50;99.90;;;;;;4952646;29;20637;-54
2022/09/02 09:16:11;;;;;;;4.57;4.10;;;16.40;99.90;;;;;;4953201;29;20039;-55
2022/09/02 09:18:51;;;;;;;5.70;4.60;;;16.40;99.90;;;;;;4951526;29;20081;-54
2022/09/02 09:21:18;;;;;;;5.82;3.90;;;16.40;99.90;;;;;;4906187;29;20399;-53
2022/09/02 09:23:45;;;;;;;5.57;4.15;;;16.40;99.90;;;;;;4920500;29;20257;-52
2022/09/02 09:26:16;;;;;;;7.65;4.00;;;16.20;99.90;;;;;;4950112;29;20545;-54
2022/09/02 09:28:45;;;;;;;4.88;3.75;;;16.40;99.90;;;;;;4952402;29;20154;-53
2022/09/02 09:31:17;;;;;;;6.30;4.30;;;16.20;99.90;;;;;;4953031;29;20046;-54
2022/09/02 09:34:02;;;;;;;4.03;3.60;;;16.40;99.90;;;;;;4979466;28;20449;-54
2022/09/02 09:36:40;;;;;;;4.88;4.38;;;16.30;99.90;;;;;;4984970;28;20030;-53
2022/09/02 09:39:25;;;;;;;7.95;5.30;;;16.50;99.90;;;;;;4962650;28;20452;-52
2022/09/02 09:41:53;;;;;;;3.58;2.50;;;16.60;99.90;;;;;;5063108;28;20032;-54
2022/09/02 09:44:43;;;;;;;8.20;4.00;;;16.50;99.90;;;;;;5097394;28;20035;-51
2022/09/02 09:47:18;;;;;;;6.80;4.10;;;16.60;99.90;;;;;;5077584;28;20390;-51
2022/09/02 09:49:45;;;;;;;6.30;4.05;;;16.50;99.90;;;;;;5094126;28;20074;-51
2022/09/02 09:52:20;;;;;;;5.72;3.80;;;16.70;99.90;;;;;;5096185;28;20028;-54
2022/09/02 09:54:46;;;;;;;6.03;3.38;;;16.60;99.90;;;;;;5092623;28;20055;-54
2022/09/02 09:57:19;;;;;;;4.35;2.70;;;16.60;99.90;;;;;;5097237;28;20395;-53
2022/09/02 09:59:48;;;;;;;5.57;3.50;;;16.50;99.90;;;;;;5094026;28;20394;-51
2022/09/02 10:02:26;;;;;;;4.15;3.10;;;16.60;99.90;;;;;;5093937;28;20036;-52
2022/09/02 10:04:54;;;;;;;7.20;3.10;;;16.60;99.90;;;;;;5094700;28;20028;-55
2022/09/02 10:07:40;;;;;;;3.92;2.80;;;16.70;99.90;;;;;;5097460;28;20058;-52
2022/09/02 10:10:30;;;;;;;7.28;3.80;;;16.60;99.90;;;;;;5090839;28;20024;-54
2022/09/02 10:13:43;;;;;;;3.70;3.10;;;16.80;99.90;;;;;;5062785;28;20068;-53
2022/09/02 10:16:18;;;;;;;4.90;3.15;;;16.90;99.90;;;;;;4988312;28;20113;-53
2022/09/02 10:18:57;;;;;;;4.60;3.17;;;17.10;99.90;;;;;;4993087;28;20053;-53
2022/09/02 10:21:55;;;;;;;3.42;2.10;;;17.20;99.90;;;;;;4989982;28;20070;-51
2022/09/02 10:24:59;;;;;;;3.63;2.72;;;17.20;99.90;;;;;;4991349;28;20026;-53
2022/09/02 10:27:46;;;;;;;5.47;3.03;;;17.10;99.90;;;;;;4961760;28;20179;-52
2022/09/02 10:30:21;;;;;;;6.65;3.80;;;17.40;99.90;;;;;;4969450;28;20047;-55
2022/09/02 10:33:04;;;;;;;5.03;2.88;;;17.40;99.90;;;;;;4949214;29;20083;-55
2022/09/02 10:35:42;;;;;;;7.82;3.60;;;17.40;99.90;;;;;;4943717;29;20042;-54
2022/09/02 10:38:41;;;;;;;4.20;3.45;;;17.50;99.90;;;;;;4949100;29;20103;-54
2022/09/02 10:41:44;;;;;;;6.63;3.85;;;17.70;99.90;;;;;;4945675;29;20031;-52
2022/09/02 10:44:10;;;;;;;4.15;3.03;;;17.90;99.90;;;;;;4948632;29;20563;-53
2022/09/02 10:46:54;;;;;;;6.45;3.13;;;18.20;99.90;;;;;;4948072;29;20134;-51
2022/09/02 10:49:41;;;;;;;5.65;3.00;;;18.40;99.90;;;;;;4946632;29;20048;-52
2022/09/02 10:52:37;;;;;;;4.28;3.13;;;18.40;99.90;;;;;;4957890;28;20129;-54
2022/09/02 10:55:05;;;;;;;5.68;3.65;;;18.50;99.90;;;;;;4979643;28;20105;-55
2022/09/02 10:57:44;;;;;;;4.35;3.50;;;18.30;99.90;;;;;;4981279;28;20042;-53
2022/09/02 11:00:15;;;;;;;6.05;3.78;;;18.40;99.90;;;;;;4958184;28;20038;-55
2022/09/02 11:02:54;;;;;;;5.70;3.90;;;18.20;99.90;;;;;;5006044;28;20147;-51
2022/09/02 11:05:48;;;;;;;5.55;3.33;;;18.20;99.90;;;;;;5074884;28;20024;-53
2022/09/02 11:08:35;;;;;;;5.40;3.53;;;18.20;99.90;;;;;;5072916;28;20040;-56
2022/09/02 11:11:10;;;;;;;6.22;3.22;;;18.20;99.90;;;;;;5076408;28;20105;-53
2022/09/02 11:13:54;;;;;;;4.50;3.17;;;18.00;99.90;;;;;;5075425;28;20021;-53
2022/09/02 11:16:45;;;;;;;6.68;3.38;;;18.20;99.90;;;;;;5068686;28;20024;-53
2022/09/02 11:19:31;;;;;;;3.83;3.33;;;18.20;99.90;;;;;;5011329;28;20501;-54
2022/09/02 11:22:02;;;;;;;4.35;3.00;;;18.40;99.90;;;;;;5011614;28;20038;-53
2022/09/02 11:25:08;;;;;;;3.55;3.05;;;18.50;99.90;;;;;;5007659;28;20104;-52
2022/09/02 11:27:45;;;;;;;3.78;3.05;;;18.50;99.90;;;;;;4993518;28;20042;-54
2022/09/02 11:30:42;;;;;;;5.82;3.05;;;18.40;99.90;;;;;;4992138;28;20049;-53
2022/09/02 11:33:25;;;;;;;5.40;3.83;;;18.20;99.90;;;;;;4989126;28;20026;-52
2022/09/02 11:35:51;;;;;;;5.32;3.60;;;18.30;99.90;;;;;;4991093;28;20484;-51
2022/09/02 11:38:43;;;;;;;4.30;3.45;;;18.30;99.90;;;;;;4992516;28;20109;-53
2022/09/02 11:41:27;;;;;;;4.18;3.60;;;18.40;99.90;;;;;;4992695;28;20038;-53
2022/09/02 11:44:34;;;;;;;5.28;3.42;;;18.50;99.90;;;;;;4989965;28;20421;-53
2022/09/02 11:47:29;;;;;;;5.30;3.70;;;18.60;99.90;;;;;;4968547;28;20081;-55
2022/09/02 11:50:27;;;;;;;8.15;3.70;;;18.70;99.90;;;;;;4969614;28;20486;-54
2022/09/02 11:53:27;;;;;;;3.85;3.42;;;18.80;99.90;;;;;;4969319;28;20043;-54
2022/09/02 11:56:07;;;;;;;6.82;4.13;;;18.70;99.90;;;;;;4914496;29;20045;-53
2022/09/02 11:58:37;;;;;;;5.03;3.42;;;18.90;99.90;;;;;;4947696;29;20047;-53
2022/09/02 12:01:14;;;;;;;4.25;3.70;;;18.90;99.90;;;;;;4949980;29;20159;-53
2022/09/02 12:04:09;;;;;;;9.30;3.83;;;19.00;99.90;;;;;;4950757;29;20038;-52
2022/09/02 12:06:35;;;;;;;4.05;3.13;;;19.10;99.90;;;;;;4911940;29;20123;-54
2022/09/02 12:09:07;;;;;;;5.32;3.42;;;19.20;99.90;;;;;;4912921;29;20575;-54
2022/09/02 12:11:40;;;;;;;7.32;3.80;;;19.30;99.90;;;;;;4912550;29;20114;-52
2022/09/02 12:14:24;;;;;;;4.60;3.63;;;19.30;99.90;;;;;;4911959;29;20456;-51
2022/09/02 12:17:36;;;;;;;5.68;3.70;;;19.50;99.90;;;;;;4911836;29;20040;-54
2022/09/02 12:20:06;;;;;;;6.38;3.58;;;19.50;99.90;;;;;;4907451;29;20138;-52
2022/09/02 12:22:37;;;;;;;5.85;3.65;;;19.20;99.90;;;;;;4912449;29;20066;-50
2022/09/02 12:25:23;;;;;;;4.22;2.88;;;19.30;99.90;;;;;;4936118;29;20054;-55
2022/09/02 12:27:50;;;;;;;11.13;4.10;;;19.20;99.90;;;;;;4950516;29;20062;-54
2022/09/02 12:30:54;;;;;;;6.95;3.80;;;19.00;99.90;;;;;;4950066;29;20043;-54
2022/09/02 12:33:41;;;;;;;7.68;4.50;;;19.10;99.90;;;;;;4969170;28;20406;-54
2022/09/02 12:36:08;;;;;;;6.25;5.03;;;18.90;99.90;;;;;;4972636;28;20523;-54
2022/09/02 12:38:41;;;;;;;7.22;3.60;;;18.90;99.90;;;;;;4970532;28;20074;-55
2022/09/02 12:41:20;;;;;;;4.85;3.85;;;18.90;99.90;;;;;;4970345;28;20031;-52
2022/09/02 12:44:27;;;;;;;5.10;4.05;;;19.10;99.90;;;;;;5040349;28;20044;-51
2022/09/02 12:47:22;;;;;;;5.47;4.43;;;19.10;99.90;;;;;;5009949;28;20034;-56
2022/09/02 12:50:11;;;;;;;5.32;3.25;;;19.10;99.90;;;;;;5013295;28;20049;-53
2022/09/02 12:52:48;;;;;;;5.70;3.97;;;19.20;99.90;;;;;;4952987;28;20433;-55
2022/09/02 12:55:22;;;;;;;7.35;3.97;;;19.10;99.90;;;;;;4966919;28;20141;-53
2022/09/02 12:57:54;;;;;;;7.20;3.35;;;19.10;99.90;;;;;;4957845;28;20445;-55
2022/09/02 13:00:36;;;;;;;9.07;3.85;;;18.90;99.90;;;;;;4971560;28;20442;-53
2022/09/02 13:03:20;;;;;;;5.47;2.80;;;19.20;99.90;;;;;;4970071;28;20044;-52
2022/09/02 13:06:23;;;;;;;5.00;2.97;;;19.00;99.90;;;;;;4969405;28;20353;-53
2022/09/02 13:08:48;;;;;;;;;;;19.20;99.90;;;;;;4916371;29;20050;-55
2022/09/02 13:11:51;;;;;;;5.13;2.92;;;19.20;99.90;;;;;;4916415;29;20283;-55
2022/09/02 13:14:31;;;;;;;6.57;2.78;;;19.30;99.90;;;;;;4911948;29;20036;-53
2022/09/02 13:17:16;;;;;;;3.50;2.65;;;19.20;99.90;;;;;;4914538;29;20496;-54
2022/09/02 13:20:21;;;;;;;7.97;3.35;;;19.00;99.90;;;;;;4916477;29;20056;-56
2022/09/02 13:23:09;;;;;;;5.75;2.70;;;19.10;99.90;;;;;;4959541;28;20038;-55
2022/09/02 13:26:00;;;;;;;4.95;2.75;;;19.10;99.90;;;;;;4951119;28;20532;-55
2022/09/02 13:29:11;;;;;;;7.00;3.05;;;19.10;99.90;;;;;;4950425;28;20430;-56
2022/09/02 13:31:37;;;;;;;3.80;2.85;;;19.10;99.90;;;;;;5016988;28;20636;-52
2022/09/02 13:34:29;;;;;;;5.88;3.53;;;19.20;99.90;;;;;;5018013;28;20045;-53
2022/09/02 13:36:55;;;;;;;5.07;2.95;;;19.20;99.90;;;;;;4980914;28;20046;-54
2022/09/02 13:39:26;;;;;;;5.20;2.92;;;19.30;99.90;;;;;;4980677;28;20050;-52
2022/09/02 13:41:52;;;;;;;5.03;3.67;;;19.40;99.90;;;;;;4949944;28;20042;-52
2022/09/02 13:44:27;;;;;;;4.28;3.35;;;19.40;99.90;;;;;;4962120;28;20042;-53
2022/09/02 13:47:14;;;;;;;3.22;2.75;;;19.60;99.90;;;;;;5056171;28;20055;-52
2022/09/02 13:49:41;;;;;;;5.32;3.50;;;19.50;99.90;;;;;;5052034;28;20048;-53
2022/09/02 13:52:29;;;;;;;5.00;3.33;;;19.50;99.90;;;;;;5058481;28;20032;-54
2022/09/02 13:54:57;;;;;;;4.38;3.13;;;19.60;99.90;;;;;;5050089;28;20075;-53
2022/09/02 13:57:26;;;;;;;4.00;2.60;;;19.70;99.90;;;;;;5053637;28;20072;-54
2022/09/02 13:59:54;;;;;;;4.07;2.85;;;19.60;99.90;;;;;;5052872;28;20123;-51
2022/09/02 14:02:29;;;;;;;5.18;3.20;;;19.60;99.90;;;;;;5057018;28;20036;-54
2022/09/02 14:05:18;;;;;;;6.30;3.38;;;19.60;99.90;;;;;;5053139;28;20041;-52
2022/09/02 14:07:49;;;;;;;5.90;3.15;;;19.50;99.90;;;;;;5060228;28;20143;-54
2022/09/02 14:10:21;;;;;;;8.93;3.65;;;19.60;99.90;;;;;;4974039;28;20576;-52
2022/09/02 14:12:48;;;;;;;6.05;3.40;;;19.70;99.90;;;;;;5027458;28;20073;-53
2022/09/02 14:15:22;;;;;;;5.00;3.30;;;19.70;99.90;;;;;;5020875;28;20044;-54
2022/09/02 14:18:09;;;;;;;6.15;3.75;;;19.50;99.90;;;;;;5025437;28;20039;-55
2022/09/02 14:20:37;;;;;;;5.55;3.47;;;19.50;99.90;;;;;;5020364;28;20049;-51
2022/09/02 14:23:03;;;;;;;6.75;4.07;;;19.50;99.90;;;;;;5024183;28;20026;-53
2022/09/02 14:25:35;;;;;;;4.05;3.05;;;19.40;99.90;;;;;;5010238;28;20042;-55
2022/09/02 14:28:10;;;;;;;6.18;3.92;;;19.40;99.90;;;;;;5005766;28;20096;-53
2022/09/02 14:30:40;;;;;;;4.25;3.28;;;19.30;99.90;;;;;;5007792;28;20042;-55
2022/09/02 14:33:36;;;;;;;8.45;3.58;;;19.30;99.90;;;;;;5003959;28;20038;-55
2022/09/02 14:36:18;;;;;;;5.90;3.20;;;19.20;99.90;;;;;;5006143;28;20042;-53
2022/09/02 14:38:44;;;;;;;7.07;3.60;;;19.20;99.90;;;;;;5001743;28;20081;-53
2022/09/02 14:41:17;;;;;;;6.53;3.83;;;19.10;99.90;;;;;;5026871;28;20492;-52
2022/09/02 14:44:12;;;;;;;18.23;4.32;;;19.20;99.90;;;;;;5053025;28;20570;-51